createdAt,value
2023-02-16T00:00:00.743Z,35.60
2023-02-16T00:05:31.076Z,28.27
2023-02-16T00:10:38.330Z,30.93
2023-02-16T00:15:41.747Z,31.83
2023-02-16T00:20:45.668Z,33.00
2023-02-16T00:25:48.674Z,31.97
2023-02-16T00:30:51.985Z,37.17
2023-02-16T00:35:55.025Z,41.97
2023-02-16T00:40:57.813Z,37.90
2023-02-16T00:46:00.754Z,32.20
2023-02-16T00:51:13.743Z,31.10
2023-02-16T00:56:24.040Z,34.60
2023-02-16T01:01:32.133Z,29.50
2023-02-16T01:06:53.414Z,30.73
2023-02-16T01:11:57.116Z,29.77
2023-02-16T01:17:00.309Z,28.47
2023-02-16T01:22:03.225Z,32.43
2023-02-16T01:27:06.149Z,28.53
2023-02-16T01:32:12.982Z,32.80
2023-02-16T01:37:16.936Z,36.43
2023-02-16T01:42:51.967Z,38.43
2023-02-16T01:48:03.216Z,25.10
2023-02-16T01:53:39.356Z,32.33
2023-02-16T01:58:54.793Z,30.00
2023-02-16T02:04:17.252Z,27.63
2023-02-16T02:09:44.862Z,26.83
2023-02-16T02:14:49.211Z,26.53
2023-02-16T02:20:13.519Z,32.20
2023-02-16T02:25:52.279Z,30.60
2023-02-16T02:31:14.679Z,27.93
2023-02-16T02:36:31.449Z,26.00
2023-02-16T02:42:16.401Z,30.90
2023-02-16T02:47:19.454Z,30.37
2023-02-16T02:53:06.636Z,28.13
2023-02-16T02:58:29.861Z,26.97
2023-02-16T03:03:46.636Z,37.73
2023-02-16T03:09:02.267Z,33.67
2023-02-16T03:22:04.394Z,23.60
2023-02-16T03:27:27.303Z,24.60
2023-02-16T03:40:48.072Z,23.53
2023-02-16T03:45:48.858Z,31.13
2023-02-16T03:50:51.889Z,27.17
2023-02-16T03:55:54.867Z,24.23
2023-02-16T04:02:19.681Z,28.20
2023-02-16T04:07:46.249Z,24.70
2023-02-16T04:12:49.671Z,25.47
2023-02-16T04:17:54.137Z,24.03
2023-02-16T04:23:05.499Z,31.00
2023-02-16T04:28:41.140Z,32.10
2023-02-16T04:34:46.099Z,25.97
2023-02-16T04:40:56.631Z,24.23
2023-02-16T04:46:00.179Z,28.73
2023-02-16T04:51:05.643Z,36.73
2023-02-16T04:56:13.309Z,29.77
2023-02-16T05:01:23.014Z,31.93
2023-02-16T05:06:26.037Z,26.53
2023-02-16T05:11:47.734Z,30.43
2023-02-16T05:16:51.127Z,33.50
2023-02-16T05:21:54.089Z,25.53
2023-02-16T05:26:57.107Z,27.77
2023-02-16T05:32:04.298Z,33.07
2023-02-16T05:37:07.933Z,35.53
2023-02-16T05:42:12.323Z,30.37
2023-02-16T05:47:15.363Z,34.87
2023-02-16T05:52:18.335Z,21.30
2023-02-16T05:57:21.426Z,31.27
2023-02-16T06:02:24.412Z,36.33
2023-02-16T06:07:27.701Z,37.13
2023-02-16T06:12:32.411Z,31.63
2023-02-16T06:17:35.335Z,32.50
2023-02-16T06:22:38.403Z,29.17
2023-02-16T06:27:41.427Z,37.37
2023-02-16T06:32:44.384Z,33.37
2023-02-16T06:37:47.396Z,40.73
2023-02-16T06:42:50.354Z,46.53
2023-02-16T06:47:53.369Z,46.67
2023-02-16T06:52:56.270Z,45.23
2023-02-16T06:57:59.227Z,48.33
2023-02-16T07:03:02.758Z,49.80
2023-02-16T07:08:05.659Z,65.93
2023-02-16T07:13:08.599Z,71.87
2023-02-16T07:18:11.465Z,57.33
2023-02-16T07:23:14.365Z,38.00
2023-02-16T07:28:17.664Z,41.50
2023-02-16T07:33:21.297Z,51.53
2023-02-16T07:38:24.053Z,40.37
2023-02-16T07:43:27.166Z,51.27
2023-02-16T07:48:30.259Z,48.37
2023-02-16T07:53:33.382Z,44.77
2023-02-16T07:58:36.906Z,42.83
2023-02-16T08:03:41.265Z,47.70
2023-02-16T08:08:44.829Z,45.43
2023-02-16T08:13:48.353Z,55.73
2023-02-16T08:18:52.800Z,72.77
2023-02-16T08:24:05.899Z,51.87
2023-02-16T08:29:10.302Z,48.07
2023-02-16T08:34:16.572Z,42.00
2023-02-16T08:39:21.552Z,50.90
2023-02-16T08:44:25.832Z,54.30
2023-02-16T08:49:28.892Z,51.23
2023-02-16T08:54:33.484Z,50.83
2023-02-16T08:59:36.417Z,47.87
2023-02-16T09:04:39.864Z,48.20
2023-02-16T09:09:44.560Z,49.97
2023-02-16T09:14:47.752Z,58.43
2023-02-16T09:19:50.856Z,50.57
2023-02-16T09:24:53.806Z,49.93
2023-02-16T09:29:58.605Z,42.70
2023-02-16T09:35:01.693Z,44.00
2023-02-16T09:40:05.303Z,58.63
2023-02-16T09:45:15.813Z,39.63
2023-02-16T09:50:50.288Z,49.07
2023-02-16T09:56:10.205Z,46.87
2023-02-16T10:01:43.238Z,42.50
2023-02-16T10:06:58.412Z,40.60
2023-02-16T10:12:09.408Z,39.87
2023-02-16T10:17:37.692Z,40.90
2023-02-16T10:23:25.194Z,37.87
2023-02-16T10:28:55.514Z,37.80
2023-02-16T10:34:24.701Z,35.00
2023-02-16T10:39:52.114Z,35.42
2023-02-16T10:45:20.774Z,35.13
2023-02-16T10:50:41.006Z,37.35
2023-02-16T10:55:44.033Z,36.07
2023-02-16T11:01:15.690Z,35.08
2023-02-16T11:06:26.222Z,36.10
2023-02-16T11:11:37.291Z,37.97
2023-02-16T11:16:40.571Z,36.05
2023-02-16T11:21:56.634Z,38.20
2023-02-16T11:27:23.268Z,36.20
2023-02-16T11:32:26.445Z,36.90
2023-02-16T11:37:33.587Z,34.67
2023-02-16T11:42:44.652Z,42.03
2023-02-16T11:47:55.953Z,39.83
2023-02-16T11:53:24.917Z,38.53
2023-02-16T11:58:29.310Z,41.10
2023-02-16T12:03:49.141Z,41.85
2023-02-16T12:09:15.743Z,40.72
2023-02-16T12:14:51.360Z,41.93
2023-02-16T12:20:23.332Z,40.47
2023-02-16T12:25:42.244Z,38.93
2023-02-16T12:31:22.720Z,37.53
2023-02-16T12:36:56.490Z,35.43
2023-02-16T12:42:32.552Z,36.00
2023-02-16T12:47:44.024Z,35.47
2023-02-16T12:52:59.073Z,36.47
2023-02-16T12:58:08.292Z,35.77
2023-02-16T13:03:22.589Z,38.80
2023-02-16T13:08:39.329Z,38.97
2023-02-16T13:13:46.921Z,44.57
2023-02-16T13:18:52.855Z,33.97
2023-02-16T13:24:35.018Z,31.93
2023-02-16T13:29:52.749Z,31.38
2023-02-16T13:35:35.815Z,25.33
2023-02-16T13:41:11.777Z,18.67
2023-02-16T13:46:28.692Z,20.03
2023-02-16T13:51:46.312Z,19.03
2023-02-16T13:56:49.353Z,18.97
2023-02-16T14:01:57.022Z,17.57
2023-02-16T14:07:09.770Z,20.67
2023-02-16T14:12:19.579Z,19.37
2023-02-16T14:17:22.663Z,24.50
2023-02-16T14:23:00.148Z,20.60
2023-02-16T14:28:26.121Z,23.20
2023-02-16T14:33:46.406Z,21.33
2023-02-16T14:38:52.185Z,20.90
2023-02-16T14:44:07.505Z,19.57
2023-02-16T14:49:55.215Z,21.40
2023-02-16T14:55:51.555Z,21.13
2023-02-16T15:01:16.540Z,22.80
2023-02-16T15:06:25.453Z,22.47
2023-02-16T15:12:00.561Z,21.97
2023-02-16T15:17:08.218Z,24.37
2023-02-16T15:22:23.144Z,25.80
2023-02-16T15:27:26.581Z,26.57
2023-02-16T15:32:29.588Z,26.10
2023-02-16T15:37:33.063Z,32.60
2023-02-16T15:42:38.295Z,27.53
2023-02-16T15:47:41.158Z,28.97
2023-02-16T15:52:44.204Z,27.97
2023-02-16T15:57:47.229Z,30.03
2023-02-16T16:02:54.839Z,28.90
2023-02-16T16:07:58.757Z,30.00
2023-02-16T16:13:06.952Z,27.70
2023-02-16T16:18:50.366Z,30.53
2023-02-16T16:24:00.378Z,32.07
2023-02-16T16:29:04.535Z,29.77
2023-02-16T16:34:12.488Z,29.00
2023-02-16T16:39:18.460Z,29.30
2023-02-16T16:44:38.952Z,36.37
2023-02-16T16:50:02.943Z,40.10
2023-02-16T16:55:35.017Z,52.37
2023-02-16T17:00:42.269Z,48.35
2023-02-16T17:05:46.129Z,54.63
2023-02-16T17:10:49.270Z,44.73
2023-02-16T17:16:12.325Z,35.13
2023-02-16T17:21:16.343Z,35.17
2023-02-16T17:26:19.218Z,33.57
2023-02-16T17:31:22.220Z,42.47
2023-02-16T17:36:27.746Z,41.37
2023-02-16T17:41:30.842Z,35.47
2023-02-16T17:46:33.951Z,48.93
2023-02-16T17:51:37.238Z,40.50
2023-02-16T17:56:40.346Z,31.57
2023-02-16T18:01:45.196Z,34.03
2023-02-16T18:06:48.260Z,35.03
2023-02-16T18:11:51.473Z,32.77
2023-02-16T18:16:54.606Z,31.13
2023-02-16T18:21:57.796Z,30.73
2023-02-16T18:27:00.536Z,32.00
2023-02-16T18:32:04.705Z,29.50
2023-02-16T18:37:07.630Z,35.13
2023-02-16T18:42:11.570Z,34.37
2023-02-16T18:47:15.225Z,31.13
2023-02-16T18:52:19.115Z,31.93
2023-02-16T18:57:22.748Z,34.13
2023-02-16T19:02:25.837Z,31.93
2023-02-16T19:07:29.051Z,32.53
2023-02-16T19:12:32.120Z,28.20
2023-02-16T19:17:35.898Z,36.40
2023-02-16T19:22:38.982Z,28.30
2023-02-16T19:27:42.949Z,25.87
2023-02-16T19:32:45.902Z,32.97
2023-02-16T19:37:49.530Z,26.67
2023-02-16T19:42:52.536Z,28.37
2023-02-16T19:47:55.443Z,27.87
2023-02-16T19:52:58.325Z,26.50
2023-02-16T19:58:01.711Z,25.37
2023-02-16T20:03:04.825Z,24.93
2023-02-16T20:08:08.125Z,59.47
2023-02-16T20:13:11.415Z,83.63
2023-02-16T20:18:14.407Z,65.43
2023-02-16T20:23:17.562Z,44.77
2023-02-16T20:28:21.005Z,53.13
2023-02-16T20:33:23.975Z,32.83
2023-02-16T20:38:26.899Z,28.07
2023-02-16T20:43:30.476Z,27.17
2023-02-16T20:48:34.679Z,28.67
2023-02-16T20:53:37.879Z,28.87
2023-02-16T20:58:42.330Z,44.83
2023-02-16T21:03:45.789Z,58.63
2023-02-16T21:08:48.708Z,44.07
2023-02-16T21:13:52.089Z,49.77
2023-02-16T21:18:56.447Z,78.07
2023-02-16T21:23:59.472Z,39.73
2023-02-16T21:29:02.584Z,32.40
2023-02-16T21:34:05.583Z,29.03
2023-02-16T21:39:08.450Z,28.23
2023-02-16T21:44:15.648Z,31.77
2023-02-16T21:49:20.577Z,31.77
2023-02-16T21:54:43.685Z,23.83
2023-02-16T21:59:46.581Z,29.83
2023-02-16T22:04:49.563Z,28.93
2023-02-16T22:09:52.452Z,30.90
2023-02-16T22:14:55.546Z,34.33
2023-02-16T22:19:58.397Z,29.37
2023-02-16T22:25:01.198Z,26.93
2023-02-16T22:30:06.140Z,24.20
2023-02-16T22:35:09.169Z,27.87
2023-02-16T22:40:12.279Z,32.53
2023-02-16T22:45:15.281Z,29.30
2023-02-16T22:50:18.446Z,42.73
2023-02-16T22:55:21.426Z,31.93
2023-02-16T23:00:24.367Z,28.00
2023-02-16T23:05:29.504Z,26.33
2023-02-16T23:10:35.525Z,29.03
2023-02-16T23:15:38.516Z,29.87
2023-02-16T23:20:41.932Z,28.97
2023-02-16T23:25:47.935Z,32.70
2023-02-16T23:30:50.679Z,27.27
2023-02-16T23:35:54.948Z,32.40
2023-02-16T23:41:05.517Z,26.37
2023-02-16T23:46:09.980Z,28.73
2023-02-16T23:51:13.140Z,39.47
2023-02-16T23:56:25.853Z,35.10
